Time;durP1;ratioP1;P1;durP2;ratioP2;P2;SDS_P1;SDS_P2;PMS_P1;PMS_P2;Temp;Humidity;BMP_temperature;BMP_pressure;BME280_temperature;BME280_humidity;BME280_pressure;Samples;Min_cycle;Max_cycle;Signal;HPM_P1;HPM_P2
2022/03/19 00:02:21;;;;;;;14.73;6.53;;;8.60;99.90;;;;;;4972249;28;20041;-68
2022/03/19 00:04:47;;;;;;;13.40;6.13;;;8.50;99.90;;;;;;4972480;28;20436;-69
2022/03/19 00:07:14;;;;;;;14.40;6.60;;;8.50;99.90;;;;;;4972267;28;20034;-69
2022/03/19 00:09:40;;;;;;;18.13;7.40;;;8.30;99.90;;;;;;4972166;28;20058;-69
2022/03/19 00:12:07;;;;;;;17.50;6.57;;;8.30;99.90;;;;;;4972243;28;20043;-68
2022/03/19 00:14:33;;;;;;;13.93;6.53;;;8.40;99.90;;;;;;4971574;28;20078;-68
2022/03/19 00:16:59;;;;;;;12.83;6.47;;;8.40;99.90;;;;;;4972022;28;20027;-68
2022/03/19 00:19:24;;;;;;;11.83;6.53;;;8.30;99.90;;;;;;4963145;28;20039;-68
2022/03/19 00:21:50;;;;;;;19.87;7.40;;;8.30;99.90;;;;;;4952557;29;20034;-69
2022/03/19 00:24:16;;;;;;;15.07;5.87;;;8.30;99.90;;;;;;4952908;29;20035;-68
2022/03/19 00:26:42;;;;;;;12.13;4.80;;;;;;;;;;4952680;29;20027;-68
2022/03/19 00:29:08;;;;;;;12.33;5.60;;;8.20;99.90;;;;;;4952287;29;20139;-68
2022/03/19 00:31:33;;;;;;;20.23;6.10;;;8.20;99.90;;;;;;4957933;28;20480;-68
2022/03/19 00:33:59;;;;;;;19.20;5.60;;;8.20;99.90;;;;;;4971623;28;20188;-68
2022/03/19 00:36:25;;;;;;;17.00;6.40;;;8.10;99.90;;;;;;4971809;28;20031;-68
2022/03/19 00:38:51;;;;;;;18.20;6.30;;;8.20;99.90;;;;;;4969612;28;20027;-68
2022/03/19 00:41:16;;;;;;;18.57;6.97;;;8.20;99.90;;;;;;4971835;28;20034;-68
2022/03/19 00:43:43;;;;;;;16.73;5.53;;;;;;;;;;4968392;28;20117;-69
2022/03/19 00:46:09;;;;;;;18.30;6.17;;;8.20;99.90;;;;;;4952385;29;20027;-68
2022/03/19 00:48:34;;;;;;;14.17;6.53;;;8.20;99.90;;;;;;4952156;29;20030;-69
2022/03/19 00:51:00;;;;;;;14.73;6.33;;;;;;;;;;4952335;29;20025;-69
2022/03/19 00:53:26;;;;;;;16.37;6.00;;;;;;;;;;4969138;28;20126;-68
2022/03/19 00:55:51;;;;;;;16.37;6.53;;;8.50;99.90;;;;;;4971325;28;20035;-68
2022/03/19 00:58:17;;;;;;;17.23;6.33;;;8.10;99.90;;;;;;4971452;28;20027;-68
2022/03/19 01:00:43;;;;;;;20.73;7.33;;;8.20;99.90;;;;;;4953302;28;20063;-68
2022/03/19 01:03:09;;;;;;;14.70;5.40;;;;;;;;;;4952032;29;20408;-68
2022/03/19 01:05:35;;;;;;;19.33;7.70;;;;;;;;;;4952210;29;20798;-68
2022/03/19 01:08:00;;;;;;;19.10;6.83;;;;;;;;;;4951908;29;20031;-68
2022/03/19 01:10:28;;;;;;;16.70;6.73;;;8.00;99.90;;;;;;4951833;29;20510;-68
2022/03/19 01:12:56;;;;;;;18.80;7.13;;;8.00;99.90;;;;;;4951173;29;20366;-68
2022/03/19 01:15:23;;;;;;;21.00;7.03;;;7.90;99.90;;;;;;4952271;29;20488;-68
2022/03/19 01:17:50;;;;;;;24.27;7.67;;;8.10;99.90;;;;;;4961402;28;20031;-68
2022/03/19 01:20:16;;;;;;;22.30;7.37;;;7.90;99.90;;;;;;4971605;28;20035;-70
2022/03/19 01:22:43;;;;;;;20.63;7.23;;;7.90;99.90;;;;;;4971187;28;20027;-69
2022/03/19 01:25:10;;;;;;;18.30;7.43;;;7.90;99.90;;;;;;4971073;28;20055;-69
2022/03/19 01:27:39;;;;;;;21.03;8.73;;;8.00;99.90;;;;;;4969274;28;20042;-68
2022/03/19 01:30:06;;;;;;;16.80;7.13;;;8.10;99.90;;;;;;4963989;28;20362;-68
2022/03/19 01:32:32;;;;;;;24.60;8.43;;;7.90;99.90;;;;;;4964582;28;20053;-68
2022/03/19 01:34:58;;;;;;;24.00;8.43;;;8.00;99.90;;;;;;4965713;28;20035;-68
2022/03/19 01:37:24;;;;;;;26.37;8.07;;;8.00;99.90;;;;;;4970946;28;20027;-69
2022/03/19 01:39:53;;;;;;;14.40;7.20;;;;;;;;;;4970303;28;20027;-68
2022/03/19 01:42:36;;;;;;;18.90;8.70;;;7.70;99.90;;;;;;4970549;28;20074;-68
2022/03/19 01:45:04;;;;;;;20.20;8.13;;;7.90;99.90;;;;;;4970443;28;20023;-69
2022/03/19 01:47:31;;;;;;;18.10;8.30;;;7.70;99.90;;;;;;4970449;28;20031;-69
2022/03/19 01:49:57;;;;;;;24.93;8.57;;;7.70;99.90;;;;;;4970731;28;20122;-68
2022/03/19 01:52:25;;;;;;;15.87;8.13;;;7.70;99.90;;;;;;4974686;28;20027;-68
2022/03/19 01:54:51;;;;;;;20.77;8.77;;;7.70;99.90;;;;;;4974353;28;20484;-69
2022/03/19 01:57:22;;;;;;;18.80;9.27;;;7.80;99.90;;;;;;4955441;28;20503;-69
2022/03/19 01:59:48;;;;;;;17.80;8.90;;;7.70;99.90;;;;;;4955142;29;20564;-68
2022/03/19 02:02:14;;;;;;;19.37;9.27;;;7.60;99.90;;;;;;4959950;28;20114;-68
2022/03/19 02:04:41;;;;;;;13.60;9.10;;;7.60;99.90;;;;;;4974712;28;20476;-69
2022/03/19 02:07:09;;;;;;;22.47;10.77;;;7.70;99.90;;;;;;4974237;28;20049;-68
2022/03/19 02:09:36;;;;;;;16.90;9.37;;;7.70;99.90;;;;;;4974504;28;20559;-68
2022/03/19 02:12:02;;;;;;;21.40;9.53;;;;;;;;;;4972485;28;20488;-69
2022/03/19 02:14:28;;;;;;;21.30;9.67;;;7.70;99.90;;;;;;4974723;28;20042;-68
2022/03/19 02:16:54;;;;;;;19.20;10.70;;;7.80;99.90;;;;;;4974218;28;20027;-68
2022/03/19 02:19:19;;;;;;;26.10;10.37;;;7.60;99.90;;;;;;4974676;28;20026;-68
2022/03/19 02:21:47;;;;;;;27.77;9.87;;;7.70;99.90;;;;;;4973909;28;20042;-68
2022/03/19 02:26:59;;;;;;;26.20;10.27;;;7.70;99.90;;;;;;4974161;28;20069;-68
2022/03/19 02:29:25;;;;;;;20.20;10.27;;;7.80;99.90;;;;;;4974580;28;20427;-68
2022/03/19 02:31:53;;;;;;;22.63;10.10;;;7.60;99.90;;;;;;4973954;28;20029;-69
2022/03/19 02:34:19;;;;;;;18.77;10.40;;;7.60;99.90;;;;;;4972927;28;20066;-68
2022/03/19 02:36:45;;;;;;;19.33;10.47;;;7.50;99.90;;;;;;4972884;28;20514;-68
2022/03/19 02:39:18;;;;;;;18.10;10.53;;;7.40;99.90;;;;;;4973278;28;20134;-68
2022/03/19 02:41:47;;;;;;;17.92;10.35;;;7.50;99.90;;;;;;4974175;28;20476;-68
2022/03/19 02:44:13;;;;;;;33.53;10.43;;;;;;;;;;4973784;28;20042;-68
2022/03/19 02:47:00;;;;;;;18.47;9.27;;;7.40;99.90;;;;;;4974003;28;20114;-68
2022/03/19 02:49:26;;;;;;;21.93;10.10;;;7.50;99.90;;;;;;4954693;28;20055;-68
2022/03/19 02:51:53;;;;;;;23.83;9.47;;;7.80;99.90;;;;;;4954377;28;20086;-69
2022/03/19 02:54:22;;;;;;;19.23;10.07;;;7.60;99.90;;;;;;4954220;29;20036;-68
2022/03/19 02:56:48;;;;;;;21.77;9.93;;;;;;;;;;4954359;28;20105;-68
2022/03/19 02:59:22;;;;;;;23.03;9.80;;;7.50;99.90;;;;;;4970430;28;20113;-68
2022/03/19 03:01:49;;;;;;;;;;;7.50;99.90;;;;;;4973210;28;20031;-68
2022/03/19 03:04:15;;;;;;;21.87;8.97;;;7.60;99.90;;;;;;4973488;28;19913;-69
2022/03/19 03:06:42;;;;;;;20.93;9.40;;;7.40;99.90;;;;;;4973823;28;20019;-68
2022/03/19 03:09:10;;;;;;;16.30;8.60;;;7.30;99.90;;;;;;4972640;28;20380;-68
2022/03/19 03:11:36;;;;;;;16.00;8.30;;;7.50;99.90;;;;;;4973692;28;20015;-69
2022/03/19 03:14:03;;;;;;;19.63;8.70;;;7.70;99.90;;;;;;4957613;28;20046;-68
2022/03/19 03:16:32;;;;;;;21.60;10.70;;;7.40;99.90;;;;;;4954159;28;20567;-68
2022/03/19 03:19:03;;;;;;;15.77;7.50;;;7.30;99.90;;;;;;4953699;28;20031;-70
2022/03/19 03:21:28;;;;;;;21.97;8.93;;;7.10;99.90;;;;;;4954247;28;20027;-70
2022/03/19 03:23:57;;;;;;;22.67;8.20;;;7.30;99.90;;;;;;4953188;29;20095;-70
2022/03/19 03:26:25;;;;;;;16.37;8.80;;;7.10;99.90;;;;;;4952836;29;20058;-70
2022/03/19 03:28:51;;;;;;;23.03;8.77;;;7.10;99.90;;;;;;4965911;28;20108;-70
2022/03/19 03:31:17;;;;;;;20.80;9.83;;;7.00;99.90;;;;;;4956851;28;20380;-70
2022/03/19 03:33:43;;;;;;;16.43;8.97;;;7.20;99.90;;;;;;4953850;29;20143;-70
2022/03/19 03:36:08;;;;;;;15.40;8.27;;;7.10;99.90;;;;;;4953267;29;20506;-69
2022/03/19 03:38:34;;;;;;;21.43;10.17;;;7.00;99.90;;;;;;4953464;29;20031;-70
2022/03/19 03:40:59;;;;;;;16.83;8.17;;;7.00;99.90;;;;;;4966041;28;20031;-70
2022/03/19 03:43:25;;;;;;;14.57;7.27;;;6.70;99.90;;;;;;4962717;28;20039;-70
2022/03/19 03:45:51;;;;;;;24.33;8.87;;;7.00;99.90;;;;;;4953415;29;20514;-70
2022/03/19 03:48:17;;;;;;;23.47;9.27;;;6.70;99.90;;;;;;4953390;29;20150;-70
2022/03/19 03:50:43;;;;;;;18.37;9.53;;;;;;;;;;4953601;29;20063;-70
2022/03/19 03:53:09;;;;;;;22.63;10.27;;;6.80;99.90;;;;;;4952543;29;20027;-70
2022/03/19 03:55:37;;;;;;;16.20;9.80;;;6.80;99.90;;;;;;4953588;29;20563;-70
2022/03/19 03:58:03;;;;;;;18.00;9.50;;;6.90;99.90;;;;;;4953770;28;20023;-70
2022/03/19 04:00:30;;;;;;;20.60;9.33;;;6.70;99.90;;;;;;4953620;29;20031;-70
2022/03/19 04:02:55;;;;;;;17.33;9.60;;;6.90;99.90;;;;;;4951703;29;20492;-70
2022/03/19 04:05:21;;;;;;;19.17;9.50;;;6.80;99.90;;;;;;4953214;29;20043;-70
2022/03/19 04:07:47;;;;;;;20.77;9.60;;;;;;;;;;4952912;29;20030;-70
2022/03/19 04:10:12;;;;;;;15.17;12.47;;;6.90;99.90;;;;;;4952702;29;20055;-70
2022/03/19 04:12:38;;;;;;;19.60;9.73;;;;;;;;;;4956130;28;20110;-70
2022/03/19 04:15:05;;;;;;;28.93;10.37;;;6.80;99.90;;;;;;4971839;28;20070;-70
2022/03/19 04:17:31;;;;;;;23.27;11.43;;;6.60;99.90;;;;;;4972106;28;20023;-70
2022/03/19 04:19:57;;;;;;;21.43;10.13;;;6.70;99.90;;;;;;4952806;28;20397;-70
2022/03/19 04:22:22;;;;;;;28.23;9.90;;;;;;;;;;4952508;29;20022;-70
2022/03/19 04:24:48;;;;;;;21.70;10.30;;;6.70;99.90;;;;;;4952939;29;20059;-70
2022/03/19 04:27:14;;;;;;;23.50;11.57;;;;;;;;;;4952643;28;20050;-70
2022/03/19 04:29:41;;;;;;;20.73;11.30;;;6.60;99.90;;;;;;4972400;28;20023;-70
2022/03/19 04:32:07;;;;;;;27.70;11.20;;;6.70;99.90;;;;;;4971787;28;20037;-70
2022/03/19 04:34:33;;;;;;;18.30;9.53;;;6.60;99.90;;;;;;4972068;28;20089;-70
2022/03/19 04:36:59;;;;;;;20.37;10.33;;;6.60;99.90;;;;;;4971173;28;20023;-70
2022/03/19 04:39:25;;;;;;;24.53;11.60;;;6.70;99.90;;;;;;4953898;28;20065;-70
2022/03/19 04:41:50;;;;;;;20.20;11.10;;;6.50;99.90;;;;;;4952376;28;20023;-70
2022/03/19 04:44:16;;;;;;;26.63;11.07;;;6.60;99.90;;;;;;4952419;28;20384;-70
2022/03/19 04:46:42;;;;;;;24.60;10.63;;;6.70;99.90;;;;;;4952668;29;20024;-70
2022/03/19 04:49:09;;;;;;;18.73;10.70;;;6.50;99.90;;;;;;4967010;28;20414;-70
2022/03/19 04:51:37;;;;;;;24.70;11.00;;;6.50;99.90;;;;;;4971537;28;20015;-71
2022/03/19 04:54:04;;;;;;;18.33;10.33;;;6.50;99.90;;;;;;4971169;28;20132;-70
2022/03/19 04:56:30;;;;;;;27.20;12.07;;;6.50;99.90;;;;;;4971750;28;20030;-70
2022/03/19 04:58:59;;;;;;;27.47;11.93;;;6.40;99.90;;;;;;4971617;28;20057;-71
2022/03/19 05:01:29;;;;;;;22.43;12.03;;;6.60;99.90;;;;;;4971688;28;20093;-70
2022/03/19 05:03:54;;;;;;;24.33;12.00;;;6.40;99.90;;;;;;4960492;28;20035;-69
2022/03/19 05:06:21;;;;;;;19.93;11.10;;;;;;;;;;4951743;28;20042;-70
2022/03/19 05:08:47;;;;;;;24.77;10.97;;;6.50;99.90;;;;;;4952230;28;20523;-70
2022/03/19 05:11:12;;;;;;;21.87;11.33;;;6.40;99.90;;;;;;4951863;28;20031;-70
2022/03/19 05:13:43;;;;;;;23.53;12.03;;;6.60;99.90;;;;;;4952418;29;20074;-70
2022/03/19 05:16:09;;;;;;;24.57;10.97;;;6.50;99.90;;;;;;4951921;28;20035;-70
2022/03/19 05:18:35;;;;;;;21.13;10.73;;;;;;;;;;4958387;28;20026;-70
2022/03/19 05:21:01;;;;;;;21.40;10.70;;;;;;;;;;4971165;28;20133;-70
2022/03/19 05:23:27;;;;;;;18.03;11.03;;;;;;;;;;4971351;28;20484;-70
2022/03/19 05:25:53;;;;;;;17.77;10.30;;;;;;;;;;4972627;28;20027;-70
2022/03/19 05:28:19;;;;;;;20.07;9.97;;;6.50;99.90;;;;;;4975292;28;20113;-70
2022/03/19 05:30:45;;;;;;;12.83;9.83;;;6.40;99.90;;;;;;4975569;28;20384;-70
2022/03/19 05:33:13;;;;;;;21.53;11.07;;;6.30;99.90;;;;;;4973219;28;20709;-70
2022/03/19 05:35:39;;;;;;;21.73;10.03;;;6.40;99.90;;;;;;4975020;28;20050;-70
2022/03/19 05:38:05;;;;;;;22.03;9.77;;;6.40;99.90;;;;;;4974328;28;20034;-70
2022/03/19 05:40:31;;;;;;;23.80;10.33;;;6.30;99.90;;;;;;4974755;28;20649;-70
2022/03/19 05:42:56;;;;;;;19.67;10.27;;;6.30;99.90;;;;;;4974395;28;20134;-71
2022/03/19 05:45:22;;;;;;;21.87;9.97;;;6.20;99.90;;;;;;4974436;28;20097;-70
2022/03/19 05:47:48;;;;;;;24.93;12.37;;;6.20;99.90;;;;;;4971664;28;20369;-71
2022/03/19 05:50:15;;;;;;;22.47;10.33;;;;;;;;;;4972053;28;20038;-72
2022/03/19 05:52:40;;;;;;;16.60;10.57;;;6.30;99.90;;;;;;4975040;28;20054;-70
2022/03/19 05:55:08;;;;;;;26.77;11.60;;;6.40;99.90;;;;;;4974118;28;20039;-71
2022/03/19 05:57:35;;;;;;;21.63;9.07;;;6.20;99.90;;;;;;4973566;28;20026;-71
2022/03/19 06:00:00;;;;;;;16.73;9.03;;;6.20;99.90;;;;;;4974691;28;20093;-70
2022/03/19 06:02:26;;;;;;;15.50;8.87;;;;;;;;;;4959184;28;20067;-70
2022/03/19 06:04:53;;;;;;;15.73;8.57;;;6.30;99.90;;;;;;4955288;29;20046;-70
2022/03/19 06:07:18;;;;;;;19.37;9.57;;;6.20;99.90;;;;;;4955226;29;20031;-70
2022/03/19 06:09:44;;;;;;;16.07;8.03;;;6.30;99.90;;;;;;4955333;29;20536;-70
2022/03/19 06:12:10;;;;;;;15.60;7.13;;;;;;;;;;4967215;28;20054;-70
2022/03/19 06:14:36;;;;;;;17.83;8.87;;;6.20;99.90;;;;;;4974714;28;20070;-70
2022/03/19 06:17:02;;;;;;;19.90;8.57;;;;;;;;;;4973871;28;20518;-70
2022/03/19 06:19:27;;;;;;;19.60;8.70;;;6.20;99.90;;;;;;4973304;28;20062;-70
2022/03/19 06:21:53;;;;;;;21.33;8.53;;;6.20;99.90;;;;;;4974148;28;20365;-70
2022/03/19 06:24:20;;;;;;;19.27;7.23;;;6.30;99.90;;;;;;4974295;28;20062;-70
2022/03/19 06:26:46;;;;;;;18.53;7.40;;;6.30;99.90;;;;;;4972996;28;20034;-70
2022/03/19 06:29:11;;;;;;;14.27;7.80;;;6.30;99.90;;;;;;4973838;28;20034;-70
2022/03/19 06:31:37;;;;;;;22.30;9.63;;;6.40;99.90;;;;;;4973961;28;20027;-70
2022/03/19 06:34:03;;;;;;;15.60;7.80;;;;;;;;;;4973751;28;20019;-69
2022/03/19 06:39:13;;;;;;;15.30;7.40;;;6.30;99.90;;;;;;4973840;28;20037;-71
2022/03/19 06:41:39;;;;;;;19.27;8.17;;;6.60;99.90;;;;;;4974246;28;20130;-70
2022/03/19 06:44:05;;;;;;;16.00;7.40;;;;;;;;;;4973768;28;20451;-70
2022/03/19 06:46:31;;;;;;;19.80;7.27;;;6.50;99.90;;;;;;4972182;28;20472;-70
2022/03/19 06:48:57;;;;;;;15.13;7.50;;;;;;;;;;4973751;28;20078;-70
2022/03/19 06:51:22;;;;;;;15.97;6.80;;;6.70;99.90;;;;;;4973803;28;20535;-70
2022/03/19 06:53:49;;;;;;;18.13;7.00;;;6.70;99.90;;;;;;4973874;28;20600;-70
2022/03/19 06:56:15;;;;;;;18.87;7.60;;;6.70;99.90;;;;;;4973440;28;20035;-70
2022/03/19 06:58:41;;;;;;;12.07;6.97;;;6.60;99.90;;;;;;4973964;28;20027;-70
2022/03/19 07:01:14;;;;;;;19.53;7.53;;;6.70;99.90;;;;;;4972402;28;20109;-70
2022/03/19 07:03:46;;;;;;;17.60;7.32;;;6.80;99.90;;;;;;4973276;28;20496;-70
2022/03/19 07:06:15;;;;;;;14.77;7.00;;;6.80;99.90;;;;;;4972754;28;20034;-70
2022/03/19 07:08:41;;;;;;;10.67;6.63;;;7.00;99.90;;;;;;4972890;28;20406;-70
2022/03/19 07:11:07;;;;;;;15.33;6.57;;;;;;;;;;4971108;28;20034;-70
2022/03/19 07:13:33;;;;;;;15.13;6.03;;;6.50;99.90;;;;;;4973155;28;20489;-70
2022/03/19 07:15:59;;;;;;;13.27;6.50;;;6.90;99.90;;;;;;4972342;28;20034;-70
2022/03/19 07:18:25;;;;;;;11.53;5.70;;;7.00;99.90;;;;;;4972639;28;20043;-71
2022/03/19 07:20:51;;;;;;;15.87;5.87;;;;;;;;;;4972742;28;20030;-70
2022/03/19 07:23:16;;;;;;;14.17;5.77;;;7.00;99.90;;;;;;4972954;28;20701;-70
2022/03/19 07:25:43;;;;;;;14.83;6.37;;;;;;;;;;4973220;28;20023;-70
2022/03/19 07:28:15;;;;;;;14.53;5.37;;;7.10;99.90;;;;;;4972778;28;20042;-70
2022/03/19 07:30:41;;;;;;;14.23;5.83;;;7.00;99.90;;;;;;4972847;28;20027;-67
2022/03/19 07:33:06;;;;;;;13.60;5.50;;;7.00;99.90;;;;;;4972501;28;20167;-70
2022/03/19 07:35:32;;;;;;;15.40;7.60;;;7.30;99.90;;;;;;4972982;28;20042;-69
2022/03/19 07:37:58;;;;;;;12.07;5.27;;;7.40;99.90;;;;;;4972831;28;20113;-70
2022/03/19 07:43:11;;;;;;;15.33;5.33;;;7.20;99.90;;;;;;4965807;28;20149;-68
2022/03/19 07:45:38;;;;;;;14.20;5.80;;;7.40;99.90;;;;;;4972610;28;20030;-68
2022/03/19 07:48:04;;;;;;;14.27;6.23;;;;;;;;;;4972163;28;20031;-68
2022/03/19 07:50:30;;;;;;;12.80;5.77;;;7.40;99.90;;;;;;4971332;28;20042;-66
2022/03/19 07:52:56;;;;;;;14.60;7.00;;;7.50;99.90;;;;;;4972396;28;20396;-66
2022/03/19 07:55:22;;;;;;;17.93;6.87;;;7.70;99.90;;;;;;4967586;28;20071;-66
2022/03/19 07:57:48;;;;;;;11.83;6.43;;;;;;;;;;4953382;29;20050;-66
2022/03/19 08:00:14;;;;;;;17.77;6.83;;;7.70;99.90;;;;;;4954909;28;20031;-66
2022/03/19 08:02:40;;;;;;;20.60;6.77;;;7.80;99.90;;;;;;4951156;28;20412;-67
2022/03/19 08:05:07;;;;;;;20.17;7.70;;;7.70;99.90;;;;;;4974895;28;20361;-68
2022/03/19 08:07:33;;;;;;;14.17;6.70;;;;;;;;;;5006703;28;20045;-66
2022/03/19 08:09:59;;;;;;;18.57;6.90;;;;;;;;;;4973939;28;20054;-66
2022/03/19 08:12:26;;;;;;;17.77;7.50;;;8.00;99.90;;;;;;4972323;28;20058;-66
2022/03/19 08:14:51;;;;;;;16.30;6.60;;;8.30;99.90;;;;;;4972313;28;20048;-66
2022/03/19 08:17:18;;;;;;;16.47;7.63;;;8.40;99.90;;;;;;4972361;28;20480;-66
2022/03/19 08:19:45;;;;;;;17.37;7.10;;;8.50;99.90;;;;;;4971184;28;20031;-66
2022/03/19 08:22:10;;;;;;;12.30;5.83;;;8.30;99.90;;;;;;4989749;28;20484;-66
2022/03/19 08:24:36;;;;;;;14.77;5.87;;;8.50;99.90;;;;;;4991463;28;20072;-66
2022/03/19 08:27:02;;;;;;;11.73;5.47;;;8.50;99.90;;;;;;4990882;28;20499;-66
2022/03/19 08:29:28;;;;;;;16.83;6.80;;;8.60;99.90;;;;;;4991351;28;20034;-66
2022/03/19 08:31:54;;;;;;;14.20;6.87;;;8.70;99.80;;;;;;4991411;28;20073;-66
2022/03/19 08:34:21;;;;;;;12.60;6.30;;;;;;;;;;4991358;28;20034;-66
2022/03/19 08:36:47;;;;;;;18.03;6.23;;;8.90;99.90;;;;;;4980487;28;20062;-66
2022/03/19 08:41:58;;;;;;;16.23;6.53;;;8.80;99.90;;;;;;4971057;28;20045;-66
2022/03/19 08:44:24;;;;;;;12.13;5.50;;;8.90;99.90;;;;;;4958226;28;20047;-66
2022/03/19 08:46:50;;;;;;;9.10;4.73;;;;;;;;;;4952435;29;20155;-66
2022/03/19 08:49:15;;;;;;;13.43;6.53;;;;;;;;;;4965628;28;20042;-66
2022/03/19 08:51:41;;;;;;;10.13;5.63;;;;;;;;;;4970862;28;20114;-66
2022/03/19 08:54:15;;;;;;;11.73;5.70;;;9.40;99.90;;;;;;4971420;28;20034;-66
2022/03/19 08:56:45;;;;;;;15.63;5.50;;;9.40;99.90;;;;;;4970771;28;20476;-66
2022/03/19 08:59:12;;;;;;;9.47;5.60;;;9.50;99.90;;;;;;4965479;28;20058;-66
2022/03/19 09:01:39;;;;;;;14.80;5.40;;;9.70;99.90;;;;;;4983355;28;20031;-66
2022/03/19 09:04:05;;;;;;;18.70;5.60;;;;;;;;;;4978523;28;20037;-66
2022/03/19 09:06:31;;;;;;;8.80;4.63;;;9.50;99.90;;;;;;4990584;28;20492;-66
2022/03/19 09:08:59;;;;;;;12.83;4.13;;;;;;;;;;4990673;28;20084;-66
2022/03/19 09:11:24;;;;;;;9.07;4.87;;;9.40;99.90;;;;;;4972199;28;20038;-66
2022/03/19 09:13:51;;;;;;;9.77;4.73;;;9.90;99.90;;;;;;4971316;28;20031;-68
2022/03/19 09:16:17;;;;;;;13.13;4.67;;;9.90;99.90;;;;;;4956800;28;20035;-66
2022/03/19 09:18:43;;;;;;;8.33;4.17;;;;;;;;;;4952382;28;20119;-66
2022/03/19 09:21:09;;;;;;;10.97;3.93;;;10.10;99.90;;;;;;4954977;28;20515;-66
2022/03/19 09:23:35;;;;;;;14.43;5.17;;;;;;;;;;4970972;28;20038;-66
2022/03/19 09:26:00;;;;;;;13.90;4.10;;;10.00;99.90;;;;;;4970797;28;20118;-66
2022/03/19 09:28:26;;;;;;;12.57;4.00;;;;;;;;;;4971057;28;20066;-66
2022/03/19 09:30:52;;;;;;;7.57;3.40;;;10.00;99.90;;;;;;4971207;28;20046;-66
2022/03/19 09:33:18;;;;;;;12.80;4.13;;;9.90;92.70;;;;;;4971099;28;20042;-66
2022/03/19 09:35:45;;;;;;;9.63;3.83;;;10.30;99.90;;;;;;4961656;28;20043;-66
2022/03/19 09:38:11;;;;;;;11.67;3.30;;;10.50;98.60;;;;;;4951639;29;20026;-66
2022/03/19 09:40:37;;;;;;;8.73;3.40;;;;;;;;;;4951493;29;20039;-66
2022/03/19 09:43:03;;;;;;;8.20;3.07;;;10.90;97.00;;;;;;4954461;28;20054;-66
2022/03/19 09:45:29;;;;;;;8.03;3.20;;;;;;;;;;4971198;28;20033;-66
2022/03/19 09:47:55;;;;;;;7.47;3.50;;;10.60;96.60;;;;;;4970892;28;20026;-66
2022/03/19 09:50:21;;;;;;;7.77;3.60;;;10.60;96.20;;;;;;4971437;28;20042;-66
2022/03/19 09:52:52;;;;;;;5.50;2.60;;;10.70;89.30;;;;;;4970922;28;20034;-66
2022/03/19 09:55:18;;;;;;;5.27;2.23;;;10.20;94.80;;;;;;4970616;28;20063;-67
2022/03/19 09:57:45;;;;;;;9.37;2.77;;;10.60;94.90;;;;;;4971002;28;20031;-67
2022/03/19 10:00:12;;;;;;;6.97;1.90;;;10.80;86.00;;;;;;4967168;28;20145;-67
2022/03/19 10:02:51;;;;;;;9.70;2.47;;;10.80;90.20;;;;;;4951392;29;20051;-67
2022/03/19 10:10:47;;;;;;;5.73;2.00;;;;;;;;;;4950985;28;20134;-67
2022/03/19 10:13:13;;;;;;;6.38;2.20;;;11.00;92.70;;;;;;4961779;28;20458;-67
2022/03/19 10:15:43;;;;;;;10.03;2.97;;;11.40;92.50;;;;;;4972488;28;20453;-67
2022/03/19 10:18:09;;;;;;;6.73;2.47;;;11.20;92.80;;;;;;4973556;28;20038;-67
2022/03/19 10:20:36;;;;;;;7.03;2.80;;;11.00;92.70;;;;;;4973370;28;20250;-68
2022/03/19 10:23:02;;;;;;;5.23;2.73;;;;;;;;;;4973521;28;20459;-67
2022/03/19 10:25:28;;;;;;;11.17;2.37;;;11.20;92.50;;;;;;4973881;28;20023;-67
2022/03/19 10:28:01;;;;;;;8.73;2.40;;;12.00;80.80;;;;;;4973907;28;20609;-67
2022/03/19 10:30:33;;;;;;;10.60;2.50;;;11.20;92.70;;;;;;4972773;28;20050;-67
2022/03/19 10:32:59;;;;;;;5.60;2.07;;;11.00;91.40;;;;;;4973922;28;20034;-67
2022/03/19 10:35:25;;;;;;;8.27;2.40;;;;;;;;;;4973356;28;20062;-67
2022/03/19 10:37:51;;;;;;;5.43;1.43;;;11.10;83.30;;;;;;4973382;28;20023;-67
2022/03/19 10:40:17;;;;;;;7.35;2.97;;;11.00;85.00;;;;;;4973679;28;20043;-66
2022/03/19 10:42:42;;;;;;;3.00;1.27;;;11.00;89.00;;;;;;4974267;28;20031;-67
2022/03/19 10:45:11;;;;;;;5.97;2.60;;;11.00;73.40;;;;;;4973699;28;20046;-67
2022/03/19 10:47:42;;;;;;;5.53;1.83;;;10.90;87.60;;;;;;4973809;28;20387;-67
2022/03/19 10:50:08;;;;;;;5.87;1.77;;;11.00;87.80;;;;;;4965073;28;20072;-67
2022/03/19 10:52:36;;;;;;;8.37;1.80;;;11.10;69.10;;;;;;4967555;28;20426;-67
2022/03/19 10:55:07;;;;;;;5.63;1.58;;;11.10;85.90;;;;;;4990237;28;20038;-67
2022/03/19 10:57:34;;;;;;;5.60;2.23;;;11.30;83.50;;;;;;4973743;28;20023;-67
2022/03/19 10:59:59;;;;;;;6.47;1.40;;;11.10;86.70;;;;;;4973772;28;20031;-67
2022/03/19 11:02:30;;;;;;;7.27;2.13;;;11.20;87.70;;;;;;4973699;28;20049;-66
2022/03/19 11:05:00;;;;;;;6.50;2.23;;;11.20;87.30;;;;;;4973351;28;20042;-67
2022/03/19 11:07:30;;;;;;;7.70;1.77;;;11.10;87.30;;;;;;4977408;28;20080;-68
2022/03/19 11:09:57;;;;;;;9.43;2.50;;;11.20;71.70;;;;;;4992758;28;20054;-67
2022/03/19 11:12:27;;;;;;;6.07;2.37;;;11.00;87.60;;;;;;4982121;28;20070;-67
2022/03/19 11:14:56;;;;;;;6.22;2.28;;;11.30;87.70;;;;;;4970699;28;20140;-68
2022/03/19 11:17:32;;;;;;;4.40;1.87;;;11.30;86.50;;;;;;4973072;28;20374;-67
2022/03/19 11:20:04;;;;;;;6.53;2.90;;;11.20;86.70;;;;;;4973237;28;20035;-67
2022/03/19 11:22:39;;;;;;;9.07;2.17;;;11.40;86.40;;;;;;4972718;28;20027;-67
2022/03/19 11:25:30;;;;;;;7.30;2.17;;;11.30;80.90;;;;;;4971811;28;20038;-67
2022/03/19 11:27:59;;;;;;;4.53;2.37;;;11.70;85.90;;;;;;4952851;29;20497;-67
2022/03/19 11:30:34;;;;;;;5.53;2.13;;;11.40;69.90;;;;;;4953695;29;20042;-66
2022/03/19 11:33:04;;;;;;;7.00;2.00;;;11.50;85.40;;;;;;4953070;28;20058;-67
2022/03/19 11:35:31;;;;;;;6.88;1.77;;;11.40;67.70;;;;;;4968345;28;20134;-67
2022/03/19 11:38:17;;;;;;;6.68;1.70;;;11.50;81.40;;;;;;4972291;28;20488;-68
2022/03/19 11:40:47;;;;;;;6.55;1.75;;;11.50;81.40;;;;;;4970126;28;20058;-67
2022/03/19 11:43:36;;;;;;;2.42;0.90;;;11.50;82.10;;;;;;4973009;28;20020;-68
2022/03/19 11:46:06;;;;;;;3.03;1.00;;;11.60;82.20;;;;;;4963729;28;20035;-67
2022/03/19 11:48:35;;;;;;;6.43;1.52;;;11.50;82.60;;;;;;4974133;28;20019;-67
2022/03/19 11:51:25;;;;;;;7.20;1.20;;;11.60;64.90;;;;;;4971225;28;20029;-67
2022/03/19 11:53:55;;;;;;;6.70;1.80;;;11.70;82.20;;;;;;4967671;28;20118;-67
2022/03/19 11:56:22;;;;;;;4.30;1.10;;;11.70;65.90;;;;;;4969964;28;20034;-66
2022/03/19 11:58:48;;;;;;;5.47;1.23;;;;;;;;;;4963951;28;20511;-67
2022/03/19 12:01:14;;;;;;;5.97;1.02;;;11.90;80.20;;;;;;4965590;28;20031;-67
2022/03/19 12:04:05;;;;;;;3.55;1.00;;;11.80;80.00;;;;;;4954755;28;20066;-67
2022/03/19 12:06:36;;;;;;;5.32;1.02;;;11.90;71.80;;;;;;4962169;28;20030;-67
2022/03/19 12:09:03;;;;;;;3.70;0.95;;;11.80;81.10;;;;;;4971639;28;20054;-67
2022/03/19 12:11:28;;;;;;;4.03;0.77;;;11.50;73.40;;;;;;4971152;28;20027;-67
2022/03/19 12:13:56;;;;;;;5.67;1.30;;;11.90;81.00;;;;;;4972044;28;20054;-67
2022/03/19 12:16:41;;;;;;;3.60;0.88;;;11.90;66.50;;;;;;4960645;28;20121;-68
2022/03/19 12:19:08;;;;;;;1.93;1.07;;;12.10;63.50;;;;;;4970944;28;20085;-67
2022/03/19 12:21:36;;;;;;;3.67;1.00;;;12.30;79.20;;;;;;4970082;28;20031;-68
2022/03/19 12:24:16;;;;;;;3.25;0.98;;;12.10;77.40;;;;;;4971572;28;20402;-68
2022/03/19 12:26:51;;;;;;;6.38;1.73;;;12.00;78.20;;;;;;4971655;28;20027;-68
2022/03/19 12:29:18;;;;;;;4.40;1.00;;;12.20;77.50;;;;;;4961285;28;20039;-69
2022/03/19 12:31:53;;;;;;;5.03;1.10;;;12.30;77.50;;;;;;4953425;28;20039;-68
2022/03/19 12:34:21;;;;;;;6.05;1.30;;;12.10;78.10;;;;;;4961110;28;20043;-68
2022/03/19 12:36:48;;;;;;;4.85;1.08;;;;;;;;;;4971651;28;20030;-68
2022/03/19 12:39:13;;;;;;;4.97;0.90;;;12.10;78.70;;;;;;4971674;28;20034;-68
2022/03/19 12:41:41;;;;;;;6.03;1.27;;;12.20;63.10;;;;;;4970195;28;20027;-65
2022/03/19 12:44:10;;;;;;;5.30;1.40;;;12.10;75.20;;;;;;4971629;28;20049;-65
2022/03/19 12:46:37;;;;;;;4.68;1.83;;;12.10;79.00;;;;;;4970245;28;20023;-65
2022/03/19 12:49:04;;;;;;;5.65;1.23;;;12.40;79.80;;;;;;4971436;28;20035;-66
2022/03/19 12:51:30;;;;;;;13.30;1.70;;;;;;;;;;4971430;28;20069;-65
2022/03/19 12:53:56;;;;;;;5.93;1.25;;;12.30;67.80;;;;;;4971364;28;20035;-66
2022/03/19 12:56:24;;;;;;;5.60;1.17;;;12.20;78.50;;;;;;4971434;28;20030;-65
2022/03/19 12:58:53;;;;;;;4.07;1.23;;;12.50;77.10;;;;;;4970120;28;20168;-66
2022/03/19 13:01:24;;;;;;;5.47;1.40;;;12.60;77.20;;;;;;4971171;28;20354;-65
2022/03/19 13:03:58;;;;;;;3.97;0.85;;;12.40;60.50;;;;;;4969204;28;20031;-65
2022/03/19 13:06:29;;;;;;;4.25;0.88;;;12.50;78.60;;;;;;4970459;28;20536;-65
2022/03/19 13:08:54;;;;;;;6.15;1.70;;;12.40;78.80;;;;;;4967905;28;20039;-65
2022/03/19 13:11:20;;;;;;;7.28;1.55;;;12.40;72.60;;;;;;4967050;28;20061;-66
2022/03/19 13:13:47;;;;;;;1.80;0.80;;;12.60;62.00;;;;;;4959861;28;20029;-67
2022/03/19 13:16:25;;;;;;;4.97;0.90;;;12.70;77.30;;;;;;4970533;28;20034;-68
2022/03/19 13:19:00;;;;;;;5.05;0.80;;;12.80;60.30;;;;;;4970755;28;20388;-67